Time;durP1;ratioP1;P1;durP2;ratioP2;P2;SDS_P1;SDS_P2;PMS_P1;PMS_P2;Temp;Humidity;BMP_temperature;BMP_pressure;BME280_temperature;BME280_humidity;BME280_pressure;Samples;Min_cycle;Max_cycle;Signal;HPM_P1;HPM_P2
2022/09/20 00:01:12;;;;;;;4.00;3.60;;;;;;;8.64;87.96;94124.55;1656576;85;21210;-57
2022/09/20 00:03:41;;;;;;;3.77;3.47;;;;;;;8.64;87.61;94126.67;1655400;85;21085;-57
2022/09/20 00:06:13;;;;;;;4.05;3.10;;;;;;;8.62;87.22;94127.73;1661343;85;20980;-56
2022/09/20 00:08:40;;;;;;;3.40;3.07;;;;;;;8.61;87.25;94124.83;1621332;87;21187;-57
2022/09/20 00:11:16;;;;;;;6.42;3.33;;;;;;;8.66;87.28;94125.61;1609912;87;21081;-57
2022/09/20 00:13:44;;;;;;;4.20;3.80;;;;;;;8.74;87.38;94123.36;1570866;89;21732;-56
2022/09/20 00:16:19;;;;;;;5.65;4.03;;;;;;;8.79;86.96;94126.29;1636401;86;21465;-56
2022/09/20 00:18:50;;;;;;;7.30;4.80;;;;;;;8.82;86.84;94133.61;1654908;86;21018;-56
2022/09/20 00:21:20;;;;;;;8.25;6.30;;;;;;;8.86;86.83;94130.74;1658824;85;20998;-57
2022/09/20 00:23:47;;;;;;;9.40;6.03;;;;;;;8.87;86.54;94130.90;1634109;86;21050;-56
2022/09/20 00:26:14;;;;;;;8.15;5.33;;;;;;;8.85;86.63;94132.73;1640218;86;21172;-56
2022/09/20 00:28:42;;;;;;;5.80;4.62;;;;;;;8.86;86.78;94131.52;1631412;86;21097;-57
2022/09/20 00:31:09;;;;;;;8.35;5.03;;;;;;;8.84;86.56;94135.30;1650048;86;21564;-57
2022/09/20 00:36:22;;;;;;;5.40;4.05;;;;;;;8.76;86.72;94143.65;1648754;85;20946;-56
2022/09/20 00:38:55;;;;;;;7.90;4.87;;;;;;;8.76;86.68;94136.80;1645788;86;22476;-57
2022/09/20 00:41:22;;;;;;;6.62;4.60;;;;;;;8.77;86.89;94134.83;1640143;86;21569;-56
2022/09/20 00:43:49;;;;;;;6.97;4.87;;;;;;;8.78;86.75;94130.25;1648601;86;20995;-56
2022/09/20 00:46:37;;;;;;;8.15;5.58;;;;;;;8.79;86.59;94136.52;1642343;86;21009;-56
2022/09/20 00:49:22;;;;;;;12.70;5.67;;;;;;;8.77;86.86;94131.47;1656226;84;21438;-56
2022/09/20 00:51:54;;;;;;;7.70;4.50;;;;;;;8.77;86.71;94134.83;1628210;85;21148;-56
2022/09/20 00:54:20;;;;;;;8.63;3.77;;;;;;;8.76;86.45;94129.94;1595862;87;21063;-57
2022/09/20 00:56:47;;;;;;;3.65;3.27;;;;;;;8.77;86.43;94127.35;1632224;87;21100;-55
2022/09/20 00:59:26;;;;;;;3.65;3.30;;;;;;;8.79;86.34;94132.40;1629540;87;21106;-56
2022/09/20 01:01:57;;;;;;;3.10;2.90;;;;;;;8.77;85.90;94127.35;1618868;87;21206;-56
2022/09/20 01:04:25;;;;;;;3.40;3.10;;;;;;;8.74;85.44;94131.00;1637265;87;21273;-57
2022/09/20 01:06:56;;;;;;;3.17;2.87;;;;;;;8.67;85.08;94125.02;1656503;85;21550;-57
2022/09/20 01:09:22;;;;;;;3.30;3.00;;;;;;;8.59;84.89;94130.00;1660098;85;21582;-56
2022/09/20 01:11:49;;;;;;;3.90;3.60;;;;;;;8.51;85.05;94128.75;1665187;85;21042;-57
2022/09/20 01:14:21;;;;;;;4.15;3.60;;;;;;;8.47;85.07;94128.72;1662678;85;21064;-58
2022/09/20 01:16:44;;;;;;;3.40;3.20;;;;;;;8.45;85.11;94123.67;1658520;85;21107;-57
2022/09/20 01:19:31;;;;;;;3.15;2.95;;;;;;;8.45;84.69;94122.92;1661652;85;21069;-57
2022/09/20 01:21:59;;;;;;;3.50;3.22;;;;;;;8.44;84.42;94131.73;1652044;86;21112;-57
2022/09/20 01:24:43;;;;;;;3.40;3.10;;;;;;;8.41;84.31;94126.41;1659785;85;20982;-56
2022/09/20 01:27:41;;;;;;;3.05;2.70;;;;;;;8.41;84.16;94123.05;1653967;85;20983;-58
2022/09/20 01:30:12;;;;;;;5.85;3.50;;;;;;;8.37;83.98;94126.53;1657393;86;21201;-57
2022/09/20 01:33:06;;;;;;;3.80;3.50;;;;;;;8.31;83.93;94126.96;1630236;86;21451;-56
2022/09/20 01:35:34;;;;;;;2.90;2.70;;;;;;;8.26;84.16;94123.41;1657258;85;21027;-57
2022/09/20 01:38:49;;;;;;;3.25;3.00;;;;;;;8.19;84.57;94127.78;1654533;85;20986;-61
2022/09/20 01:41:21;;;;;;;4.97;3.02;;;;;;;8.17;84.52;94123.33;1653579;86;21168;-56
2022/09/20 01:44:14;;;;;;;2.95;2.75;;;;;;;8.16;84.73;94123.77;1658183;85;21151;-56
2022/09/20 01:46:41;;;;;;;3.33;3.08;;;;;;;8.21;84.94;94121.25;1646973;86;21086;-56
2022/09/20 01:49:34;;;;;;;3.20;3.00;;;;;;;8.28;84.94;94114.12;1665589;84;21609;-58
2022/09/20 01:52:26;;;;;;;3.42;3.22;;;;;;;8.34;85.07;94117.84;1646525;86;21158;-57
2022/09/20 01:55:30;;;;;;;3.17;2.98;;;;;;;8.34;84.87;94119.80;1639174;86;21026;-56
2022/09/20 01:58:25;;;;;;;3.42;3.22;;;;;;;8.31;84.75;94122.84;1644090;85;21168;-55
2022/09/20 02:01:29;;;;;;;3.67;3.37;;;;;;;8.28;84.65;94125.09;1648189;86;21586;-57
2022/09/20 02:04:39;;;;;;;5.00;3.72;;;;;;;8.24;84.96;94124.45;1652064;85;21467;-57
2022/09/20 02:07:27;;;;;;;3.72;3.40;;;;;;;8.12;84.86;94130.76;1663121;85;21168;-57
2022/09/20 02:10:39;;;;;;;3.45;3.25;;;;;;;8.01;84.96;94132.32;1653846;85;21138;-56
2022/09/20 02:13:37;;;;;;;3.40;3.10;;;;;;;7.93;84.95;94133.20;1653761;85;21204;-55
2022/09/20 02:16:18;;;;;;;3.27;2.98;;;;;;;7.87;84.93;94144.55;1647437;85;21038;-56
2022/09/20 02:19:21;;;;;;;2.90;2.70;;;;;;;7.86;84.86;94140.28;1638379;86;21644;-56
2022/09/20 02:22:28;;;;;;;3.40;3.20;;;;;;;7.79;85.05;94140.53;1639615;86;21187;-56
2022/09/20 02:25:36;;;;;;;3.50;3.30;;;;;;;7.82;85.38;94141.02;1594361;89;21061;-58
2022/09/20 02:28:23;;;;;;;3.87;3.35;;;;;;;7.84;85.28;94143.29;1643196;86;21190;-57
2022/09/20 02:31:05;;;;;;;10.38;6.50;;;;;;;7.85;85.19;94138.75;1648812;86;20971;-57
2022/09/20 02:34:23;;;;;;;6.97;4.83;;;;;;;7.89;84.97;94137.27;1642927;86;21084;-57
2022/09/20 02:36:58;;;;;;;8.95;5.62;;;;;;;7.84;84.38;94139.95;1646985;86;21022;-56
2022/09/20 02:39:36;;;;;;;6.70;4.30;;;;;;;7.70;84.50;94137.70;1640976;86;21088;-57
2022/09/20 02:42:28;;;;;;;4.12;3.80;;;;;;;7.62;84.96;94140.53;1652736;85;22250;-58
2022/09/20 02:45:11;;;;;;;5.22;4.55;;;;;;;7.59;85.09;94131.84;1647253;86;21106;-56
2022/09/20 02:47:40;;;;;;;4.40;4.00;;;;;;;7.55;85.35;94132.55;1639091;86;21038;-56
2022/09/20 02:50:21;;;;;;;4.50;3.40;;;;;;;7.55;85.35;94130.42;1632819;86;20987;-55
2022/09/20 02:53:31;;;;;;;3.42;3.22;;;;;;;7.53;85.42;94134.21;1636574;86;21043;-56
2022/09/20 02:56:18;;;;;;;3.10;2.90;;;;;;;7.48;85.64;94127.31;1649592;86;21329;-56
2022/09/20 02:59:00;;;;;;;4.70;3.12;;;;;;;7.46;85.70;94124.27;1645653;86;21055;-57
2022/09/20 03:01:44;;;;;;;3.00;2.80;;;;;;;7.44;85.71;94125.31;1654484;86;21102;-57
2022/09/20 03:04:41;;;;;;;3.85;2.90;;;;;;;7.43;85.67;94134.73;1646381;86;20988;-56
2022/09/20 03:07:18;;;;;;;3.15;2.90;;;;;;;7.41;85.38;94131.67;1629304;86;21006;-57
2022/09/20 03:10:02;;;;;;;3.10;2.90;;;;;;;7.40;85.42;94129.36;1641670;86;21893;-57
2022/09/20 03:12:48;;;;;;;3.17;2.98;;;;;;;7.36;85.10;94125.37;1651280;86;21110;-57
2022/09/20 03:15:46;;;;;;;3.40;3.15;;;;;;;7.29;85.11;94129.72;1647269;86;21060;-58
2022/09/20 03:18:37;;;;;;;3.35;3.15;;;;;;;7.24;85.21;94131.65;1608273;87;21028;-59
2022/09/20 03:21:29;;;;;;;4.85;3.42;;;;;;;7.22;85.12;94132.69;1644908;86;21048;-60
2022/09/20 03:24:45;;;;;;;7.55;3.90;;;;;;;7.22;84.82;94132.69;1645603;86;21236;-56
2022/09/20 03:27:40;;;;;;;3.58;3.37;;;;;;;7.14;84.46;94139.58;1637196;86;21041;-59
2022/09/20 03:30:33;;;;;;;3.50;3.30;;;;;;;7.04;84.76;94139.92;1606166;88;21524;-59
2022/09/20 03:33:17;;;;;;;3.33;3.12;;;;;;;6.99;85.03;94138.33;1632019;86;21018;-59
2022/09/20 03:36:22;;;;;;;3.98;3.60;;;;;;;6.98;85.06;94143.64;1627692;87;21060;-57
2022/09/20 03:39:19;;;;;;;3.87;3.27;;;;;;;6.95;84.86;94141.79;1603762;87;21182;-61
2022/09/20 03:42:18;;;;;;;3.35;3.15;;;;;;;6.91;84.85;94148.72;1627823;86;20999;-57
2022/09/20 03:45:40;;;;;;;3.52;3.33;;;;;;;6.81;84.80;94146.32;1600939;87;21129;-57
2022/09/20 03:48:44;;;;;;;3.72;3.52;;;;;;;6.78;85.36;94153.45;1627907;87;21132;-59
2022/09/20 03:51:28;;;;;;;6.35;4.03;;;;;;;6.81;85.66;94158.62;1633859;85;21227;-57
2022/09/20 03:54:16;;;;;;;4.85;4.45;;;;;;;6.85;85.91;94156.56;1624367;86;21276;-56
2022/09/20 03:57:00;;;;;;;6.05;4.25;;;;;;;6.91;86.20;94158.30;1629021;86;21489;-55
2022/09/20 03:59:41;;;;;;;7.45;4.40;;;;;;;7.00;86.30;94165.25;1606764;87;21434;-57
2022/09/20 04:02:37;;;;;;;3.58;3.37;;;;;;;7.05;86.33;94161.96;1627488;86;21478;-56
2022/09/20 04:05:21;;;;;;;3.47;3.27;;;;;;;7.09;86.30;94162.02;1642832;86;21019;-57
2022/09/20 04:08:15;;;;;;;3.47;3.27;;;;;;;7.10;86.29;94164.92;1598888;86;21364;-56
2022/09/20 04:11:32;;;;;;;5.87;5.47;;;;;;;7.12;86.37;94163.88;1650360;86;21074;-56
2022/09/20 04:14:36;;;;;;;3.30;3.10;;;;;;;7.14;86.20;94172.41;1592142;86;21502;-58
2022/09/20 04:17:21;;;;;;;9.25;5.62;;;;;;;7.13;86.20;94176.34;1655179;85;21017;-58
2022/09/20 04:20:19;;;;;;;14.13;8.98;;;;;;;7.17;86.66;94170.16;1652522;85;21087;-57
2022/09/20 04:22:45;;;;;;;15.90;9.45;;;;;;;7.19;86.74;94166.38;1598630;86;21222;-58
2022/09/20 04:25:16;;;;;;;14.83;8.85;;;;;;;7.24;86.65;94169.95;1648655;85;21653;-57
2022/09/20 04:27:56;;;;;;;8.53;7.28;;;;;;;7.21;86.46;94176.30;1657545;85;21183;-57
2022/09/20 04:30:28;;;;;;;8.73;6.28;;;;;;;7.15;86.67;94176.66;1660996;85;21110;-55
2022/09/20 04:33:19;;;;;;;9.47;7.77;;;;;;;7.15;87.04;94176.66;1658893;85;21047;-59
2022/09/20 04:39:18;;;;;;;7.50;6.03;;;;;;;7.11;87.39;94185.59;1636238;84;21095;-58
2022/09/20 04:42:10;;;;;;;9.98;5.10;;;;;;;7.10;87.45;94192.27;1646557;86;21183;-59
2022/09/20 04:44:48;;;;;;;5.53;4.57;;;;;;;7.11;87.42;94197.90;1654686;86;21049;-62
2022/09/20 04:47:42;;;;;;;5.15;4.65;;;;;;;7.20;87.45;94189.81;1644591;85;20976;-61
2022/09/20 04:50:52;;;;;;;5.85;4.80;;;;;;;7.30;87.61;94189.31;1636136;86;21076;-56
2022/09/20 04:53:49;;;;;;;5.67;5.00;;;;;;;7.41;87.44;94189.72;1625348;87;21503;-57
2022/09/20 04:56:53;;;;;;;7.03;4.40;;;;;;;7.51;87.70;94193.48;1588828;87;21070;-58
2022/09/20 04:59:52;;;;;;;9.60;6.05;;;;;;;7.58;86.96;94201.48;1628493;87;21036;-59
2022/09/20 05:02:45;;;;;;;9.28;7.20;;;;;;;7.61;86.75;94202.55;1607811;88;21634;-57
2022/09/20 05:05:44;;;;;;;11.48;7.70;;;;;;;7.63;86.56;94206.98;1595535;89;21184;-58
2022/09/20 05:08:38;;;;;;;12.93;8.48;;;;;;;7.69;86.30;94212.83;1614136;87;21016;-58
2022/09/20 05:11:37;;;;;;;14.03;8.03;;;;;;;7.71;85.87;94207.67;1627414;87;21134;-58
2022/09/20 05:14:24;;;;;;;11.00;7.03;;;;;;;7.70;85.80;94203.41;1613508;87;21067;-58
2022/09/20 05:17:13;;;;;;;8.63;5.10;;;;;;;7.74;85.60;94210.89;1599436;88;21678;-57
2022/09/20 05:20:01;;;;;;;6.85;6.22;;;;;;;7.77;85.58;94207.88;1610324;87;21455;-58
2022/09/20 05:22:49;;;;;;;10.13;7.53;;;;;;;7.81;85.43;94206.56;1581387;89;21070;-57
2022/09/20 05:25:33;;;;;;;7.05;6.25;;;;;;;7.93;85.30;94209.88;1583452;90;21206;-58
2022/09/20 05:28:14;;;;;;;8.98;7.33;;;;;;;8.03;84.70;94216.95;1540412;87;21110;-58
2022/09/20 05:30:53;;;;;;;9.53;6.40;;;;;;;8.10;84.17;94219.44;1599947;88;20987;-58
2022/09/20 05:33:48;;;;;;;10.70;6.85;;;;;;;8.20;83.83;94222.46;1627830;86;21181;-59
2022/09/20 05:36:55;;;;;;;9.70;5.87;;;;;;;8.25;83.56;94221.89;1610538;87;21046;-60
2022/09/20 05:39:55;;;;;;;12.37;6.17;;;;;;;8.29;83.25;94226.63;1633551;87;21035;-59
2022/09/20 05:42:47;;;;;;;16.00;5.70;;;;;;;8.33;83.31;94223.19;1661532;85;21033;-59
2022/09/20 05:45:23;;;;;;;20.45;14.13;;;;;;;8.48;83.04;94222.06;1651866;85;21144;-59
2022/09/20 05:48:03;;;;;;;17.52;10.23;;;;;;;8.58;82.37;94214.83;1627235;86;21285;-58
2022/09/20 05:51:01;;;;;;;84.80;48.42;;;;;;;8.71;82.53;94219.65;1635022;85;20956;-59
2022/09/20 05:54:10;;;;;;;28.23;17.15;;;;;;;8.89;82.03;94216.39;1644582;84;21174;-59
2022/09/20 05:57:12;;;;;;;100.78;53.20;;;;;;;9.08;80.95;94217.27;1638511;84;22417;-60
2022/09/20 06:00:06;;;;;;;67.30;36.65;;;;;;;9.12;80.27;94222.78;1633630;86;21106;-59
2022/09/20 06:03:08;;;;;;;15.18;9.00;;;;;;;9.24;79.53;94219.78;1636784;86;21247;-60
2022/09/20 06:06:15;;;;;;;15.98;10.55;;;;;;;9.22;78.98;94219.47;1589288;87;21061;-58
2022/09/20 06:09:12;;;;;;;24.90;16.55;;;;;;;9.21;78.44;94220.69;1613774;87;21214;-59
2022/09/20 06:12:19;;;;;;;13.45;9.25;;;;;;;9.16;78.30;94216.55;1616350;86;21190;-59
2022/09/20 06:15:04;;;;;;;6.67;5.03;;;;;;;9.23;78.93;94220.38;1650670;84;21018;-59
2022/09/20 06:17:39;;;;;;;11.40;7.70;;;;;;;9.31;78.46;94209.89;1648654;85;21168;-58
2022/09/20 06:20:30;;;;;;;5.90;4.53;;;;;;;9.36;78.68;94221.65;1637702;85;21556;-61
2022/09/20 06:22:59;;;;;;;3.75;3.42;;;;;;;9.46;78.49;94216.36;1603014;87;21066;-60
2022/09/20 06:25:31;;;;;;;4.75;4.35;;;;;;;9.55;77.83;94213.63;1638554;85;21095;-60
2022/09/20 06:28:06;;;;;;;4.20;3.27;;;;;;;9.70;77.05;94213.22;1633468;84;21100;-60
2022/09/20 06:30:50;;;;;;;7.00;4.35;;;;;;;9.85;75.82;94208.09;1631239;84;22097;-59
2022/09/20 06:33:24;;;;;;;7.47;3.67;;;;;;;10.01;74.60;94207.03;1646395;84;21235;-59
2022/09/20 06:42:10;;;;;;;3.62;3.30;;;;;;;10.31;72.08;94193.19;1630789;84;21062;-60
2022/09/20 06:44:40;;;;;;;4.83;2.95;;;;;;;10.44;69.86;94196.55;1637982;84;21317;-58
2022/09/20 06:47:09;;;;;;;3.37;3.10;;;;;;;10.43;68.97;94197.00;1645283;85;21105;-58
2022/09/20 06:49:36;;;;;;;3.33;3.00;;;;;;;10.39;69.37;94191.64;1635553;85;21065;-58
2022/09/20 06:52:05;;;;;;;3.37;3.08;;;;;;;10.44;69.41;94192.42;1634361;85;21147;-56
2022/09/20 06:54:33;;;;;;;4.15;2.70;;;;;;;10.46;67.81;94189.20;1643272;84;21576;-58
2022/09/20 06:57:02;;;;;;;2.77;2.55;;;;;;;10.46;67.45;94197.45;1650858;84;21202;-58
2022/09/20 06:59:29;;;;;;;3.05;2.52;;;;;;;10.52;67.72;94196.38;1616114;85;21629;-60
2022/09/20 07:01:55;;;;;;;7.03;3.62;;;;;;;10.58;67.71;94191.03;1648661;84;21679;-60
2022/09/20 07:04:25;;;;;;;7.47;3.02;;;;;;;10.58;67.79;94197.31;1630781;85;21073;-57
2022/09/20 07:07:00;;;;;;;5.85;5.12;;;;;;;10.58;67.23;94193.19;1653719;84;21014;-58
2022/09/20 07:09:27;;;;;;;6.10;3.58;;;;;;;10.60;66.98;94192.70;1655314;84;21164;-58
2022/09/20 07:11:58;;;;;;;11.38;5.62;;;;;;;10.69;66.51;94196.84;1651456;84;21126;-60
2022/09/20 07:14:26;;;;;;;8.25;4.45;;;;;;;10.82;66.25;94193.43;1604178;85;21592;-56
2022/09/20 07:16:53;;;;;;;4.53;3.58;;;;;;;10.95;66.28;94196.77;1643619;85;21102;-60
2022/09/20 07:19:22;;;;;;;15.78;5.03;;;;;;;11.09;65.73;94189.84;1622170;86;21003;-59
2022/09/20 07:21:49;;;;;;;7.37;2.90;;;;;;;11.23;65.48;94189.20;1649900;84;21160;-58
2022/09/20 07:24:16;;;;;;;6.60;2.30;;;;;;;11.34;63.83;94195.73;1687846;84;21041;-59
2022/09/20 07:26:55;;;;;;;2.33;2.00;;;;;;;11.49;63.08;94198.59;1662736;84;21528;-60
2022/09/20 07:29:22;;;;;;;4.22;2.42;;;;;;;11.64;61.88;94195.31;1597585;87;21400;-59
2022/09/20 07:31:49;;;;;;;4.70;2.87;;;;;;;11.79;61.68;94201.67;1641483;85;21030;-60
2022/09/20 07:34:19;;;;;;;3.58;2.00;;;;;;;11.88;60.53;94204.39;1641176;86;21922;-57
2022/09/20 07:36:49;;;;;;;9.98;5.15;;;;;;;11.94;59.12;94203.26;1630722;85;21057;-59
2022/09/20 07:39:16;;;;;;;7.62;2.72;;;;;;;11.91;57.22;94200.06;1641225;85;21192;-58
2022/09/20 07:41:50;;;;;;;5.90;2.80;;;;;;;11.88;56.65;94203.77;1630366;86;21083;-60
2022/09/20 07:44:23;;;;;;;17.10;9.07;;;;;;;11.88;55.78;94207.90;1643590;85;21141;-61
2022/09/20 07:46:58;;;;;;;7.47;4.22;;;;;;;11.81;56.88;94204.72;1630754;85;21429;-58
2022/09/20 07:49:26;;;;;;;21.60;11.35;;;;;;;11.83;56.57;94203.63;1632753;85;21068;-60
2022/09/20 07:51:53;;;;;;;12.25;6.20;;;;;;;11.84;57.05;94205.94;1632602;85;21043;-59
2022/09/20 07:54:19;;;;;;;3.98;3.33;;;;;;;11.81;56.45;94204.12;1655218;84;21065;-59
2022/09/20 07:56:46;;;;;;;5.25;4.75;;;;;;;11.86;56.67;94203.47;1639889;85;21091;-60
2022/09/20 07:59:13;;;;;;;2.55;2.35;;;;;;;11.96;56.45;94205.56;1633286;86;21256;-61
2022/09/20 08:01:41;;;;;;;7.83;4.47;;;;;;;12.03;56.15;94210.11;1619981;86;20946;-61
2022/09/20 08:04:08;;;;;;;31.33;23.02;;;;;;;12.12;56.24;94201.02;1644836;85;21189;-62
2022/09/20 08:06:40;;;;;;;16.25;10.20;;;;;;;12.17;55.11;94208.64;1638454;85;20972;-61
2022/09/20 08:09:07;;;;;;;21.75;10.98;;;;;;;12.20;55.56;94214.59;1625456;85;21298;-65
2022/09/20 08:11:38;;;;;;;9.48;6.35;;;;;;;12.22;55.46;94208.76;1617662;86;21659;-60
2022/09/20 08:14:04;;;;;;;10.93;8.70;;;;;;;12.28;55.98;94220.66;1639632;86;21080;-57
2022/09/20 08:16:31;;;;;;;9.13;7.67;;;;;;;12.38;56.37;94213.86;1644164;84;21116;-61
2022/09/20 08:19:00;;;;;;;15.72;4.25;;;;;;;12.52;55.28;94217.28;1652626;84;20984;-60
2022/09/20 08:21:30;;;;;;;12.68;5.12;;;;;;;12.58;55.40;94204.34;1621149;85;21642;-61
2022/09/20 08:23:57;;;;;;;28.23;17.32;;;;;;;12.64;54.86;94203.83;1635907;86;22933;-58
2022/09/20 08:26:24;;;;;;;5.92;4.40;;;;;;;12.71;54.40;94207.61;1648298;84;21165;-60
2022/09/20 08:28:53;;;;;;;17.87;12.65;;;;;;;12.80;54.07;94208.30;1635792;84;21588;-60
2022/09/20 08:31:23;;;;;;;8.68;4.50;;;;;;;12.85;54.62;94214.53;1641124;86;21656;-58
2022/09/20 08:33:51;;;;;;;4.85;4.35;;;;;;;12.96;54.70;94207.09;1622946;87;21166;-58
2022/09/20 08:36:24;;;;;;;5.70;2.40;;;;;;;13.11;53.66;94203.72;1643140;85;21232;-60
2022/09/20 08:38:52;;;;;;;5.20;3.55;;;;;;;13.20;54.00;94208.53;1627486;87;21612;-58
2022/09/20 08:41:26;;;;;;;15.35;5.08;;;;;;;13.21;53.88;94198.23;1581627;88;20915;-60
2022/09/20 08:43:58;;;;;;;4.25;3.02;;;;;;;13.28;53.79;94207.53;1649466;85;21131;-60
2022/09/20 08:46:30;;;;;;;7.25;6.55;;;;;;;13.25;53.58;94212.64;1610145;86;21074;-60
2022/09/20 08:48:57;;;;;;;4.20;2.65;;;;;;;13.00;54.29;94213.95;1622821;86;21842;-60
2022/09/20 08:51:23;;;;;;;2.67;1.95;;;;;;;12.71;55.48;94203.47;1615564;86;21098;-60
2022/09/20 08:53:52;;;;;;;4.70;2.80;;;;;;;12.46;56.25;94205.98;1632365;85;21061;-59
2022/09/20 08:56:19;;;;;;;8.28;2.00;;;;;;;12.27;57.32;94210.86;1611433;87;21038;-61
2022/09/20 08:58:45;;;;;;;8.30;1.98;;;;;;;12.27;57.18;94210.86;1599795;89;21105;-61
2022/09/20 09:01:23;;;;;;;2.10;1.90;;;;;;;12.34;57.36;94205.00;1588345;88;21302;-59
2022/09/20 09:03:52;;;;;;;2.87;2.25;;;;;;;12.48;57.43;94204.26;1578819;88;21150;-58
2022/09/20 09:06:19;;;;;;;8.95;3.02;;;;;;;12.56;56.99;94193.77;1630002;84;21351;-61
2022/09/20 09:08:52;;;;;;;2.08;1.90;;;;;;;12.62;56.95;94193.87;1641029;86;21112;-59
2022/09/20 09:11:17;;;;;;;2.20;2.00;;;;;;;12.67;55.66;94202.88;1644057;86;21015;-58
2022/09/20 09:14:03;;;;;;;4.28;3.87;;;;;;;12.65;55.61;94195.69;1615119;88;21181;-59
2022/09/20 09:16:32;;;;;;;2.70;2.50;;;;;;;12.66;54.15;94203.50;1638638;85;21067;-58
2022/09/20 09:19:27;;;;;;;2.00;1.90;;;;;;;12.70;54.78;94208.85;1624323;86;21156;-59
2022/09/20 09:22:02;;;;;;;3.40;3.10;;;;;;;12.72;55.40;94211.89;1629527;86;21073;-60
2022/09/20 09:24:32;;;;;;;4.28;3.70;;;;;;;12.81;55.06;94217.32;1600487;88;21069;-63
2022/09/20 09:27:16;;;;;;;5.00;2.70;;;;;;;12.90;54.74;94207.59;1632899;85;21245;-57
2022/09/20 09:29:49;;;;;;;4.15;3.67;;;;;;;13.03;52.97;94203.95;1606826;87;21048;-60
2022/09/20 09:32:31;;;;;;;;;;;;;;;13.18;52.40;94201.95;1616881;87;20958;-59
2022/09/20 09:35:26;;;;;;;3.65;3.35;;;;;;;13.38;52.58;94195.13;1614154;88;20157;-59
2022/09/20 09:37:56;;;;;;;6.22;3.25;;;;;;;13.50;51.87;94200.98;1589514;88;21529;-59
2022/09/20 09:40:23;;;;;;;5.30;2.50;;;;;;;13.62;52.11;94193.77;1644493;85;21301;-60
2022/09/20 09:42:58;;;;;;;2.72;2.30;;;;;;;13.76;50.81;94197.12;1648414;85;21042;-56
2022/09/20 09:45:37;;;;;;;12.18;9.13;;;;;;;13.76;49.82;94190.81;1644033;84;21096;-59
2022/09/20 09:48:29;;;;;;;3.00;2.77;;;;;;;13.68;51.55;94182.80;1606777;88;21080;-62
2022/09/20 09:51:10;;;;;;;27.15;20.80;;;;;;;13.71;51.95;94194.27;1570817;89;21106;-59
2022/09/20 09:53:37;;;;;;;10.05;7.83;;;;;;;13.75;52.68;94187.91;1628459;84;21876;-58
2022/09/20 09:56:42;;;;;;;5.03;4.03;;;;;;;14.00;53.15;94191.43;1621371;86;21092;-63
2022/09/20 09:59:41;;;;;;;7.58;5.40;;;;;;;14.24;53.98;94187.88;1639934;84;21163;-63
2022/09/20 10:02:36;;;;;;;3.75;2.47;;;;;;;14.49;52.78;94185.92;1639057;85;21705;-61
2022/09/20 10:05:11;;;;;;;4.60;3.05;;;;;;;14.53;51.43;94183.73;1648907;85;21001;-59
2022/09/20 10:07:54;;;;;;;3.30;2.98;;;;;;;14.30;52.49;94192.84;1631563;85;21839;-59
2022/09/20 10:10:46;;;;;;;10.43;5.53;;;;;;;14.14;52.86;94194.77;1640304;86;21099;-59
2022/09/20 10:13:24;;;;;;;4.58;2.60;;;;;;;14.42;53.54;94186.22;1632490;86;21621;-61
2022/09/20 10:16:18;;;;;;;4.85;2.00;;;;;;;15.20;51.70;94185.92;1642538;86;21123;-61
2022/09/20 10:19:20;;;;;;;1.52;1.37;;;;;;;15.97;49.43;94180.26;1642483;86;21123;-59
2022/09/20 10:22:01;;;;;;;2.00;1.40;;;;;;;16.44;48.85;94177.52;1639535;86;21300;-60
2022/09/20 10:24:46;;;;;;;2.40;1.70;;;;;;;16.47;46.69;94173.73;1644793;87;21098;-57
2022/09/20 10:27:38;;;;;;;5.25;1.60;;;;;;;16.04;47.28;94186.11;1639276;86;22213;-60
2022/09/20 10:30:18;;;;;;;2.52;2.02;;;;;;;15.73;47.43;94182.62;1651064;86;21090;-59
2022/09/20 10:33:18;;;;;;;7.28;3.58;;;;;;;15.42;49.02;94185.40;1635047;86;21126;-61
2022/09/20 10:36:15;;;;;;;4.12;2.98;;;;;;;15.18;49.22;94187.05;1649800;86;21334;-58
2022/09/20 10:39:12;;;;;;;6.30;3.47;;;;;;;14.96;49.65;94184.70;1638808;86;22023;-59
2022/09/20 10:45:25;;;;;;;2.65;2.20;;;;;;;15.14;49.63;94180.97;1649088;86;21039;-60
2022/09/20 10:48:07;;;;;;;5.15;1.50;;;;;;;15.70;47.56;94185.75;1644142;86;21038;-59
2022/09/20 10:51:01;;;;;;;2.92;1.52;;;;;;;15.77;48.34;94192.22;1645761;86;21851;-58
2022/09/20 10:53:37;;;;;;;1.92;1.82;;;;;;;15.52;50.34;94188.14;1650917;85;21061;-63
2022/09/20 10:56:32;;;;;;;1.52;1.40;;;;;;;15.26;50.74;94183.98;1646083;86;21529;-60
2022/09/20 10:59:34;;;;;;;2.45;1.40;;;;;;;15.61;50.92;94189.33;1644024;86;21554;-59
2022/09/20 11:02:27;;;;;;;2.00;1.37;;;;;;;16.73;52.46;94188.25;1636946;86;21222;-61
2022/09/20 11:05:23;;;;;;;10.38;1.47;;;;;;;17.62;46.34;94178.19;1643875;86;21822;-59
2022/09/20 11:08:17;;;;;;;2.25;0.70;;;;;;;18.08;44.24;94172.07;1645768;84;21066;-59
2022/09/20 11:10:57;;;;;;;0.93;0.93;;;;;;;17.99;42.88;94173.75;1646295;86;21193;-58
2022/09/20 11:13:32;;;;;;;3.02;2.75;;;;;;;17.60;44.49;94178.55;1630944;86;21553;-60
2022/09/20 11:16:16;;;;;;;3.35;2.75;;;;;;;17.45;45.19;94176.03;1603418;87;21113;-61
2022/09/20 11:19:22;;;;;;;3.00;1.60;;;;;;;17.60;44.36;94181.34;1625483;85;21232;-60
2022/09/20 11:22:09;;;;;;;2.67;2.47;;;;;;;18.10;43.19;94176.49;1609982;87;21619;-59
2022/09/20 11:24:52;;;;;;;1.92;1.55;;;;;;;18.32;42.42;94172.41;1624953;85;21177;-59
2022/09/20 11:27:39;;;;;;;1.57;1.40;;;;;;;18.55;41.55;94175.27;1626176;86;21068;-60
2022/09/20 11:30:20;;;;;;;3.45;1.30;;;;;;;18.53;41.84;94168.69;1609085;87;21105;-59
2022/09/20 11:33:14;;;;;;;1.02;1.00;;;;;;;18.63;41.18;94173.45;1571707;91;21540;-62
2022/09/20 11:35:45;;;;;;;0.90;0.80;;;;;;;18.92;39.80;94170.05;1594974;89;21196;-58
2022/09/20 11:38:22;;;;;;;0.88;0.88;;;;;;;18.72;40.21;94170.39;1621327;86;21135;-60
2022/09/20 11:41:20;;;;;;;3.55;2.55;;;;;;;18.32;41.24;94164.05;1614284;85;21113;-60
2022/09/20 11:43:47;;;;;;;3.30;2.90;;;;;;;18.10;42.41;94177.27;1647385;85;21083;-60
2022/09/20 11:46:28;;;;;;;2.30;2.10;;;;;;;17.70;42.87;94173.64;1659901;84;21943;-59
2022/09/20 11:49:04;;;;;;;4.08;1.90;;;;;;;17.57;43.54;94171.22;1612028;85;21124;-59
2022/09/20 11:51:55;;;;;;;1.95;1.22;;;;;;;17.39;43.72;94174.50;1605950;87;21569;-61
2022/09/20 11:55:02;;;;;;;2.83;1.50;;;;;;;17.07;43.86;94179.48;1646307;85;21603;-59
2022/09/20 11:57:29;;;;;;;1.20;1.10;;;;;;;16.55;45.58;94182.48;1633251;86;21170;-62
2022/09/20 11:59:59;;;;;;;2.92;1.72;;;;;;;16.43;47.11;94182.94;1649283;85;21202;-60
2022/09/20 12:02:38;;;;;;;2.12;1.40;;;;;;;16.93;46.61;94177.69;1634354;86;21159;-61
2022/09/20 12:05:06;;;;;;;3.65;2.35;;;;;;;17.29;45.08;94184.34;1628195;85;21046;-59
2022/09/20 12:07:39;;;;;;;8.38;1.32;;;;;;;17.21;44.88;94178.52;1632922;85;21206;-58
2022/09/20 12:10:08;;;;;;;;;;;;;;;17.09;44.62;94176.22;1624203;85;21181;-60
2022/09/20 12:12:40;;;;;;;1.85;1.47;;;;;;;16.83;45.22;94176.41;1637131;86;21852;-59
2022/09/20 12:15:29;;;;;;;4.50;1.50;;;;;;;16.59;45.36;94185.03;1632581;85;21123;-59
2022/09/20 12:18:01;;;;;;;1.27;1.17;;;;;;;16.41;45.94;94186.84;1660677;84;21101;-61
2022/09/20 12:20:41;;;;;;;1.55;1.30;;;;;;;16.25;45.45;94184.71;1608841;86;21160;-60
2022/09/20 12:23:39;;;;;;;6.00;3.67;;;;;;;16.12;46.87;94173.28;1614362;85;21117;-66
2022/09/20 12:26:27;;;;;;;2.50;2.22;;;;;;;15.96;46.83;94182.29;1627822;85;21195;-63
2022/09/20 12:28:57;;;;;;;2.80;2.12;;;;;;;15.84;47.33;94191.01;1611675;87;21068;-58
2022/09/20 12:31:32;;;;;;;5.67;2.62;;;;;;;15.70;47.37;94188.52;1614521;86;21023;-59
2022/09/20 12:34:14;;;;;;;2.65;1.75;;;;;;;15.53;48.28;94194.56;1637347;86;21082;-59
2022/09/20 12:36:54;;;;;;;7.58;2.20;;;;;;;15.40;48.85;94195.58;1640571;86;21134;-61
2022/09/20 12:39:28;;;;;;;2.33;1.92;;;;;;;15.30;48.68;94193.47;1623949;87;21265;-61
2022/09/20 12:42:00;;;;;;;5.72;3.42;;;;;;;15.34;48.85;94189.88;1631583;85;21178;-61
2022/09/20 12:44:34;;;;;;;6.87;2.90;;;;;;;15.46;48.13;94190.09;1645945;86;21093;-59
2022/09/20 12:47:07;;;;;;;11.83;9.98;;;;;;;15.39;48.56;94194.06;1636424;86;21023;-58
2022/09/20 12:52:55;;;;;;;10.25;4.17;;;;;;;15.43;48.53;94184.14;1601397;87;21292;-61
2022/09/20 12:55:49;;;;;;;4.17;2.80;;;;;;;15.95;48.34;94190.45;1606887;87;21626;-59
2022/09/20 12:58:24;;;;;;;30.68;17.90;;;;;;;16.16;46.92;94189.70;1633556;85;21191;-58
2022/09/20 13:01:06;;;;;;;5.97;4.33;;;;;;;15.92;47.84;94196.99;1647200;85;22207;-58
2022/09/20 13:03:41;;;;;;;17.37;11.28;;;;;;;15.69;48.81;94198.09;1652585;84;22363;-61